createdAt,value
2018-07-30T00:00:02.001Z,24.10
2018-07-30T00:05:07.212Z,24.10
2018-07-30T00:10:10.400Z,24.20
2018-07-30T00:15:14.243Z,24.30
2018-07-30T00:20:17.411Z,24.20
2018-07-30T00:25:20.667Z,24.30
2018-07-30T00:30:23.811Z,24.30
2018-07-30T00:35:26.997Z,24.30
2018-07-30T00:40:30.143Z,24.40
2018-07-30T00:45:33.339Z,24.40
2018-07-30T00:50:36.519Z,24.30
2018-07-30T00:55:39.679Z,24.30
2018-07-30T01:00:42.847Z,24.30
2018-07-30T01:05:46.107Z,24.20
2018-07-30T01:15:55.256Z,24.10
2018-07-30T01:20:58.419Z,24.10
2018-07-30T01:26:05.820Z,24.10
2018-07-30T01:31:09.004Z,24.10
2018-07-30T01:36:12.173Z,24.10
2018-07-30T01:41:15.328Z,24.10
2018-07-30T01:51:21.423Z,24.00
2018-07-30T01:56:24.644Z,24.00
2018-07-30T02:01:27.863Z,24.00
2018-07-30T02:06:31.062Z,24.00
2018-07-30T02:11:34.259Z,24.00
2018-07-30T02:16:37.490Z,24.00
2018-07-30T02:21:40.703Z,23.90
2018-07-30T02:26:43.936Z,23.80
2018-07-30T02:31:47.136Z,23.70
2018-07-30T02:36:50.342Z,23.60
2018-07-30T02:41:53.535Z,23.50
2018-07-30T02:46:56.742Z,23.50
2018-07-30T02:51:59.938Z,23.50
2018-07-30T02:57:03.131Z,23.50
2018-07-30T03:02:06.332Z,23.60
2018-07-30T03:07:09.554Z,23.60
2018-07-30T03:12:12.770Z,23.50
2018-07-30T03:17:15.993Z,23.60
2018-07-30T03:22:19.206Z,23.60
2018-07-30T03:27:22.427Z,23.50
2018-07-30T03:32:25.635Z,23.40
2018-07-30T03:37:29.148Z,23.40
2018-07-30T03:42:32.358Z,23.30
2018-07-30T03:47:35.566Z,23.30
2018-07-30T03:52:38.762Z,23.40
2018-07-30T03:57:41.959Z,23.40
2018-07-30T04:02:45.152Z,23.50
2018-07-30T04:07:48.350Z,23.40
2018-07-30T04:12:51.657Z,23.50
2018-07-30T04:17:54.734Z,23.50
2018-07-30T04:22:57.934Z,23.60
